sensor_id;sensor_type;location;lat;lon;timestamp;temperature;humidity
16825;DHT22;8529;48.108;-1.706;2022-10-28T00:01:56;16.50;99.90
16825;DHT22;8529;48.108;-1.706;2022-10-28T00:04:23;16.50;99.90
16825;DHT22;8529;48.108;-1.706;2022-10-28T00:06:50;16.60;99.90
16825;DHT22;8529;48.108;-1.706;2022-10-28T00:09:17;16.60;99.90
16825;DHT22;8529;48.108;-1.706;2022-10-28T00:11:44;16.60;99.90
16825;DHT22;8529;48.108;-1.706;2022-10-28T00:14:11;16.60;99.90
16825;DHT22;8529;48.108;-1.706;2022-10-28T00:16:40;16.60;99.90
16825;DHT22;8529;48.108;-1.706;2022-10-28T00:19:11;16.50;99.90
16825;DHT22;8529;48.108;-1.706;2022-10-28T00:21:39;16.50;99.90
16825;DHT22;8529;48.108;-1.706;2022-10-28T00:24:07;16.50;99.90
16825;DHT22;8529;48.108;-1.706;2022-10-28T00:26:36;16.50;99.90
16825;DHT22;8529;48.108;-1.706;2022-10-28T00:29:05;16.50;99.90
16825;DHT22;8529;48.108;-1.706;2022-10-28T00:31:34;16.50;99.90
16825;DHT22;8529;48.108;-1.706;2022-10-28T00:34:04;16.50;99.90
16825;DHT22;8529;48.108;-1.706;2022-10-28T00:36:33;16.50;99.90
16825;DHT22;8529;48.108;-1.706;2022-10-28T00:39:02;16.50;99.90
16825;DHT22;8529;48.108;-1.706;2022-10-28T00:41:31;16.50;99.90
16825;DHT22;8529;48.108;-1.706;2022-10-28T00:44:00;16.50;99.90
16825;DHT22;8529;48.108;-1.706;2022-10-28T00:46:32;16.50;99.90
16825;DHT22;8529;48.108;-1.706;2022-10-28T00:49:05;16.50;99.90
16825;DHT22;8529;48.108;-1.706;2022-10-28T00:51:33;16.50;99.90
16825;DHT22;8529;48.108;-1.706;2022-10-28T00:54:02;16.50;99.90
16825;DHT22;8529;48.108;-1.706;2022-10-28T00:56:32;16.50;99.90
16825;DHT22;8529;48.108;-1.706;2022-10-28T00:59:02;16.50;99.90
16825;DHT22;8529;48.108;-1.706;2022-10-28T01:01:29;16.50;99.90
16825;DHT22;8529;48.108;-1.706;2022-10-28T01:03:57;16.50;99.90
16825;DHT22;8529;48.108;-1.706;2022-10-28T01:06:26;16.50;99.90
16825;DHT22;8529;48.108;-1.706;2022-10-28T01:08:54;16.50;99.90
16825;DHT22;8529;48.108;-1.706;2022-10-28T01:11:49;16.50;99.90
16825;DHT22;8529;48.108;-1.706;2022-10-28T01:14:35;16.50;99.90
16825;DHT22;8529;48.108;-1.706;2022-10-28T01:17:26;16.50;99.90
16825;DHT22;8529;48.108;-1.706;2022-10-28T01:20:42;16.50;99.90
16825;DHT22;8529;48.108;-1.706;2022-10-28T01:23:20;16.40;99.90
16825;DHT22;8529;48.108;-1.706;2022-10-28T01:26:11;16.40;99.90
16825;DHT22;8529;48.108;-1.706;2022-10-28T01:31:46;16.40;99.90
16825;DHT22;8529;48.108;-1.706;2022-10-28T01:34:22;16.30;99.90
16825;DHT22;8529;48.108;-1.706;2022-10-28T01:36:57;16.30;99.90
16825;DHT22;8529;48.108;-1.706;2022-10-28T01:39:30;16.30;99.90
16825;DHT22;8529;48.108;-1.706;2022-10-28T01:42:07;16.30;99.90
16825;DHT22;8529;48.108;-1.706;2022-10-28T01:44:44;16.30;99.90
16825;DHT22;8529;48.108;-1.706;2022-10-28T01:47:16;16.30;99.90
16825;DHT22;8529;48.108;-1.706;2022-10-28T01:49:48;16.30;99.90
16825;DHT22;8529;48.108;-1.706;2022-10-28T01:52:21;16.30;99.90
16825;DHT22;8529;48.108;-1.706;2022-10-28T01:54:54;16.30;99.90
16825;DHT22;8529;48.108;-1.706;2022-10-28T01:57:24;16.20;99.90
16825;DHT22;8529;48.108;-1.706;2022-10-28T01:59:54;16.20;99.90
16825;DHT22;8529;48.108;-1.706;2022-10-28T02:02:23;16.20;99.90
16825;DHT22;8529;48.108;-1.706;2022-10-28T02:04:50;16.20;99.90
16825;DHT22;8529;48.108;-1.706;2022-10-28T02:07:17;16.20;99.90
16825;DHT22;8529;48.108;-1.706;2022-10-28T02:10:00;16.20;99.90
16825;DHT22;8529;48.108;-1.706;2022-10-28T02:12:30;16.10;99.90
16825;DHT22;8529;48.108;-1.706;2022-10-28T02:15:29;16.10;99.90
16825;DHT22;8529;48.108;-1.706;2022-10-28T02:18:15;16.10;99.90
16825;DHT22;8529;48.108;-1.706;2022-10-28T02:20:50;16.10;99.90
16825;DHT22;8529;48.108;-1.706;2022-10-28T02:23:27;16.10;99.90
16825;DHT22;8529;48.108;-1.706;2022-10-28T02:26:01;16.10;99.90
16825;DHT22;8529;48.108;-1.706;2022-10-28T02:28:37;16.10;99.90
16825;DHT22;8529;48.108;-1.706;2022-10-28T02:31:11;16.10;99.90
16825;DHT22;8529;48.108;-1.706;2022-10-28T02:33:43;16.10;99.90
16825;DHT22;8529;48.108;-1.706;2022-10-28T02:36:15;16.10;99.90
16825;DHT22;8529;48.108;-1.706;2022-10-28T02:38:46;16.10;99.90
16825;DHT22;8529;48.108;-1.706;2022-10-28T02:41:17;16.10;99.90
16825;DHT22;8529;48.108;-1.706;2022-10-28T02:43:48;16.10;99.90
16825;DHT22;8529;48.108;-1.706;2022-10-28T02:46:18;16.10;99.90
16825;DHT22;8529;48.108;-1.706;2022-10-28T02:48:50;16.00;99.90
16825;DHT22;8529;48.108;-1.706;2022-10-28T02:51:21;16.00;99.90
16825;DHT22;8529;48.108;-1.706;2022-10-28T02:53:57;16.00;99.90
16825;DHT22;8529;48.108;-1.706;2022-10-28T02:56:26;16.00;99.90
16825;DHT22;8529;48.108;-1.706;2022-10-28T02:58:53;16.00;99.90
16825;DHT22;8529;48.108;-1.706;2022-10-28T03:01:20;16.00;99.90
16825;DHT22;8529;48.108;-1.706;2022-10-28T03:03:48;16.10;99.90
16825;DHT22;8529;48.108;-1.706;2022-10-28T03:06:15;16.10;99.90
16825;DHT22;8529;48.108;-1.706;2022-10-28T03:08:42;16.10;99.90
16825;DHT22;8529;48.108;-1.706;2022-10-28T03:11:09;16.00;99.90
16825;DHT22;8529;48.108;-1.706;2022-10-28T03:13:36;16.00;99.90
16825;DHT22;8529;48.108;-1.706;2022-10-28T03:16:03;16.00;99.90
16825;DHT22;8529;48.108;-1.706;2022-10-28T03:18:30;16.00;99.90
16825;DHT22;8529;48.108;-1.706;2022-10-28T03:20:58;16.00;99.90
16825;DHT22;8529;48.108;-1.706;2022-10-28T03:23:25;16.00;99.90
16825;DHT22;8529;48.108;-1.706;2022-10-28T03:25:52;16.00;99.90
16825;DHT22;8529;48.108;-1.706;2022-10-28T03:28:19;16.00;99.90
16825;DHT22;8529;48.108;-1.706;2022-10-28T03:30:46;16.00;99.90
16825;DHT22;8529;48.108;-1.706;2022-10-28T03:33:13;16.00;99.90
16825;DHT22;8529;48.108;-1.706;2022-10-28T03:35:40;16.00;99.90
16825;DHT22;8529;48.108;-1.706;2022-10-28T03:38:08;16.00;99.90
16825;DHT22;8529;48.108;-1.706;2022-10-28T03:40:35;16.00;99.90
16825;DHT22;8529;48.108;-1.706;2022-10-28T03:43:02;16.00;99.90
16825;DHT22;8529;48.108;-1.706;2022-10-28T03:45:29;16.00;99.90
16825;DHT22;8529;48.108;-1.706;2022-10-28T03:47:56;16.00;99.90
16825;DHT22;8529;48.108;-1.706;2022-10-28T03:50:23;16.00;99.90
16825;DHT22;8529;48.108;-1.706;2022-10-28T03:52:50;16.00;99.90
16825;DHT22;8529;48.108;-1.706;2022-10-28T03:55:18;16.00;99.90
16825;DHT22;8529;48.108;-1.706;2022-10-28T03:57:48;16.00;99.90
16825;DHT22;8529;48.108;-1.706;2022-10-28T04:00:15;16.00;99.90
16825;DHT22;8529;48.108;-1.706;2022-10-28T04:02:44;16.00;99.90
16825;DHT22;8529;48.108;-1.706;2022-10-28T04:05:14;16.00;99.90
16825;DHT22;8529;48.108;-1.706;2022-10-28T04:07:41;16.00;99.90
16825;DHT22;8529;48.108;-1.706;2022-10-28T04:10:09;16.00;99.90
16825;DHT22;8529;48.108;-1.706;2022-10-28T04:12:37;16.00;99.90
16825;DHT22;8529;48.108;-1.706;2022-10-28T04:15:05;16.00;99.90
16825;DHT22;8529;48.108;-1.706;2022-10-28T04:17:33;16.00;99.90
16825;DHT22;8529;48.108;-1.706;2022-10-28T04:20:00;16.00;99.90
16825;DHT22;8529;48.108;-1.706;2022-10-28T04:22:27;16.00;99.90
16825;DHT22;8529;48.108;-1.706;2022-10-28T04:24:54;16.00;99.90
16825;DHT22;8529;48.108;-1.706;2022-10-28T04:27:21;16.00;99.90
16825;DHT22;8529;48.108;-1.706;2022-10-28T04:29:49;15.90;99.90
16825;DHT22;8529;48.108;-1.706;2022-10-28T04:32:16;15.90;99.90
16825;DHT22;8529;48.108;-1.706;2022-10-28T04:34:43;16.00;99.90
16825;DHT22;8529;48.108;-1.706;2022-10-28T04:37:10;15.90;99.90
16825;DHT22;8529;48.108;-1.706;2022-10-28T04:39:37;15.90;99.90
16825;DHT22;8529;48.108;-1.706;2022-10-28T04:42:04;15.90;99.90
16825;DHT22;8529;48.108;-1.706;2022-10-28T04:44:31;15.80;99.90
16825;DHT22;8529;48.108;-1.706;2022-10-28T04:46:59;15.80;99.90
16825;DHT22;8529;48.108;-1.706;2022-10-28T04:49:26;15.70;99.90
16825;DHT22;8529;48.108;-1.706;2022-10-28T04:51:53;15.70;99.90
16825;DHT22;8529;48.108;-1.706;2022-10-28T04:54:20;15.60;99.90
16825;DHT22;8529;48.108;-1.706;2022-10-28T04:56:47;15.60;99.90
16825;DHT22;8529;48.108;-1.706;2022-10-28T04:59:14;15.60;99.90
16825;DHT22;8529;48.108;-1.706;2022-10-28T05:01:41;15.50;99.90
16825;DHT22;8529;48.108;-1.706;2022-10-28T05:04:10;15.50;99.90
16825;DHT22;8529;48.108;-1.706;2022-10-28T05:06:37;15.50;99.90
16825;DHT22;8529;48.108;-1.706;2022-10-28T05:09:03;15.50;99.90
16825;DHT22;8529;48.108;-1.706;2022-10-28T05:11:30;15.50;99.90
16825;DHT22;8529;48.108;-1.706;2022-10-28T05:13:57;15.50;99.90
16825;DHT22;8529;48.108;-1.706;2022-10-28T05:16:24;15.40;99.90
16825;DHT22;8529;48.108;-1.706;2022-10-28T05:18:51;15.40;99.90
16825;DHT22;8529;48.108;-1.706;2022-10-28T05:21:20;15.50;99.90
16825;DHT22;8529;48.108;-1.706;2022-10-28T05:23:47;15.50;99.90
16825;DHT22;8529;48.108;-1.706;2022-10-28T05:26:14;15.50;99.90
16825;DHT22;8529;48.108;-1.706;2022-10-28T05:28:41;15.60;99.90
16825;DHT22;8529;48.108;-1.706;2022-10-28T05:31:08;15.50;99.90
16825;DHT22;8529;48.108;-1.706;2022-10-28T05:33:36;15.50;99.90
16825;DHT22;8529;48.108;-1.706;2022-10-28T05:36:03;15.50;99.90
16825;DHT22;8529;48.108;-1.706;2022-10-28T05:38:32;15.50;99.90
16825;DHT22;8529;48.108;-1.706;2022-10-28T05:40:58;15.40;99.90
16825;DHT22;8529;48.108;-1.706;2022-10-28T05:43:25;15.40;99.90
16825;DHT22;8529;48.108;-1.706;2022-10-28T05:45:53;15.50;99.90
16825;DHT22;8529;48.108;-1.706;2022-10-28T05:48:20;15.50;99.90
16825;DHT22;8529;48.108;-1.706;2022-10-28T05:50:47;15.50;99.90
16825;DHT22;8529;48.108;-1.706;2022-10-28T05:53:14;15.50;99.90
16825;DHT22;8529;48.108;-1.706;2022-10-28T05:55:42;15.60;99.90
16825;DHT22;8529;48.108;-1.706;2022-10-28T05:58:09;15.60;99.90
16825;DHT22;8529;48.108;-1.706;2022-10-28T06:00:36;15.70;99.90
16825;DHT22;8529;48.108;-1.706;2022-10-28T06:03:04;15.70;99.90
16825;DHT22;8529;48.108;-1.706;2022-10-28T06:05:34;15.80;99.90
16825;DHT22;8529;48.108;-1.706;2022-10-28T06:08:04;15.80;99.90
16825;DHT22;8529;48.108;-1.706;2022-10-28T06:10:31;15.90;99.90
16825;DHT22;8529;48.108;-1.706;2022-10-28T06:12:59;15.90;99.90
16825;DHT22;8529;48.108;-1.706;2022-10-28T06:15:26;16.00;99.90
16825;DHT22;8529;48.108;-1.706;2022-10-28T06:17:53;16.00;99.90
16825;DHT22;8529;48.108;-1.706;2022-10-28T06:20:20;16.10;99.90
16825;DHT22;8529;48.108;-1.706;2022-10-28T06:22:48;16.10;99.90
16825;DHT22;8529;48.108;-1.706;2022-10-28T06:25:15;16.20;99.90
16825;DHT22;8529;48.108;-1.706;2022-10-28T06:27:42;16.20;99.90
16825;DHT22;8529;48.108;-1.706;2022-10-28T06:30:11;16.20;99.90
16825;DHT22;8529;48.108;-1.706;2022-10-28T06:32:39;16.20;99.90
16825;DHT22;8529;48.108;-1.706;2022-10-28T06:35:06;16.20;99.90
16825;DHT22;8529;48.108;-1.706;2022-10-28T06:37:33;16.30;99.90
16825;DHT22;8529;48.108;-1.706;2022-10-28T06:40:00;16.30;99.90
16825;DHT22;8529;48.108;-1.706;2022-10-28T06:42:27;16.40;99.90
16825;DHT22;8529;48.108;-1.706;2022-10-28T06:44:53;16.40;99.90
16825;DHT22;8529;48.108;-1.706;2022-10-28T06:47:22;16.40;99.90
16825;DHT22;8529;48.108;-1.706;2022-10-28T06:49:49;16.40;99.90
16825;DHT22;8529;48.108;-1.706;2022-10-28T06:52:16;16.40;99.90
16825;DHT22;8529;48.108;-1.706;2022-10-28T06:54:43;16.40;99.90
16825;DHT22;8529;48.108;-1.706;2022-10-28T06:57:10;16.40;99.90
16825;DHT22;8529;48.108;-1.706;2022-10-28T06:59:37;16.40;99.90
16825;DHT22;8529;48.108;-1.706;2022-10-28T07:02:04;16.30;99.90
16825;DHT22;8529;48.108;-1.706;2022-10-28T07:04:32;16.40;99.90
16825;DHT22;8529;48.108;-1.706;2022-10-28T07:06:59;16.30;99.90
16825;DHT22;8529;48.108;-1.706;2022-10-28T07:09:26;16.30;99.90
16825;DHT22;8529;48.108;-1.706;2022-10-28T07:11:53;16.30;99.90
16825;DHT22;8529;48.108;-1.706;2022-10-28T07:14:20;16.30;99.90
16825;DHT22;8529;48.108;-1.706;2022-10-28T07:16:47;16.40;99.90
16825;DHT22;8529;48.108;-1.706;2022-10-28T07:19:14;16.40;99.90
16825;DHT22;8529;48.108;-1.706;2022-10-28T07:21:42;16.40;99.90
16825;DHT22;8529;48.108;-1.706;2022-10-28T07:24:09;16.40;99.90
16825;DHT22;8529;48.108;-1.706;2022-10-28T07:26:36;16.50;99.90
16825;DHT22;8529;48.108;-1.706;2022-10-28T07:29:03;16.50;99.90
16825;DHT22;8529;48.108;-1.706;2022-10-28T07:31:30;16.50;99.90
16825;DHT22;8529;48.108;-1.706;2022-10-28T07:33:57;16.50;99.90
16825;DHT22;8529;48.108;-1.706;2022-10-28T07:36:24;16.50;99.90
16825;DHT22;8529;48.108;-1.706;2022-10-28T07:38:52;16.50;99.90
16825;DHT22;8529;48.108;-1.706;2022-10-28T07:41:20;16.60;99.90
16825;DHT22;8529;48.108;-1.706;2022-10-28T07:43:47;16.60;99.90
16825;DHT22;8529;48.108;-1.706;2022-10-28T07:46:15;16.60;99.90
16825;DHT22;8529;48.108;-1.706;2022-10-28T07:48:42;16.60;99.90
16825;DHT22;8529;48.108;-1.706;2022-10-28T07:51:11;16.60;99.90
16825;DHT22;8529;48.108;-1.706;2022-10-28T07:53:39;16.60;99.90
16825;DHT22;8529;48.108;-1.706;2022-10-28T07:56:10;16.60;99.90
16825;DHT22;8529;48.108;-1.706;2022-10-28T07:58:39;16.60;99.90
16825;DHT22;8529;48.108;-1.706;2022-10-28T08:01:08;16.60;99.90
16825;DHT22;8529;48.108;-1.706;2022-10-28T08:03:35;16.70;99.90
16825;DHT22;8529;48.108;-1.706;2022-10-28T08:06:04;16.70;99.90
16825;DHT22;8529;48.108;-1.706;2022-10-28T08:08:32;16.70;99.90
16825;DHT22;8529;48.108;-1.706;2022-10-28T08:10:59;16.70;99.90
16825;DHT22;8529;48.108;-1.706;2022-10-28T08:13:35;16.80;99.90
16825;DHT22;8529;48.108;-1.706;2022-10-28T08:16:02;16.80;99.90
16825;DHT22;8529;48.108;-1.706;2022-10-28T08:18:29;16.80;99.90
16825;DHT22;8529;48.108;-1.706;2022-10-28T08:20:58;16.80;99.90
16825;DHT22;8529;48.108;-1.706;2022-10-28T08:23:25;16.80;99.90
16825;DHT22;8529;48.108;-1.706;2022-10-28T08:25:52;16.90;99.90
16825;DHT22;8529;48.108;-1.706;2022-10-28T08:28:19;16.90;99.90
16825;DHT22;8529;48.108;-1.706;2022-10-28T08:30:47;16.90;99.90
16825;DHT22;8529;48.108;-1.706;2022-10-28T08:33:15;16.80;99.90
16825;DHT22;8529;48.108;-1.706;2022-10-28T08:35:49;16.90;99.90
16825;DHT22;8529;48.108;-1.706;2022-10-28T08:38:17;16.90;99.90
16825;DHT22;8529;48.108;-1.706;2022-10-28T08:40:52;16.90;99.90
16825;DHT22;8529;48.108;-1.706;2022-10-28T08:43:26;16.90;99.90
16825;DHT22;8529;48.108;-1.706;2022-10-28T08:46:05;16.90;99.90
16825;DHT22;8529;48.108;-1.706;2022-10-28T08:48:35;16.90;99.90
16825;DHT22;8529;48.108;-1.706;2022-10-28T08:51:05;16.90;99.90
16825;DHT22;8529;48.108;-1.706;2022-10-28T08:53:40;16.90;99.90
16825;DHT22;8529;48.108;-1.706;2022-10-28T08:56:12;17.00;99.90
16825;DHT22;8529;48.108;-1.706;2022-10-28T08:58:42;17.00;99.90
16825;DHT22;8529;48.108;-1.706;2022-10-28T09:01:19;17.00;99.90
16825;DHT22;8529;48.108;-1.706;2022-10-28T09:03:49;17.00;99.90
16825;DHT22;8529;48.108;-1.706;2022-10-28T09:06:17;17.10;99.90
16825;DHT22;8529;48.108;-1.706;2022-10-28T09:08:47;17.10;99.90
16825;DHT22;8529;48.108;-1.706;2022-10-28T09:11:37;17.10;99.90
16825;DHT22;8529;48.108;-1.706;2022-10-28T09:14:21;17.10;99.90
16825;DHT22;8529;48.108;-1.706;2022-10-28T09:16:57;17.20;99.90
16825;DHT22;8529;48.108;-1.706;2022-10-28T09:19:37;17.20;99.90
16825;DHT22;8529;48.108;-1.706;2022-10-28T09:22:15;17.20;99.90
16825;DHT22;8529;48.108;-1.706;2022-10-28T09:24:51;17.20;99.90
16825;DHT22;8529;48.108;-1.706;2022-10-28T09:27:27;17.30;99.90
16825;DHT22;8529;48.108;-1.706;2022-10-28T09:30:02;17.30;99.90
16825;DHT22;8529;48.108;-1.706;2022-10-28T09:32:41;17.30;99.90
16825;DHT22;8529;48.108;-1.706;2022-10-28T09:35:12;17.30;99.90
16825;DHT22;8529;48.108;-1.706;2022-10-28T09:37:41;17.40;99.90
16825;DHT22;8529;48.108;-1.706;2022-10-28T09:40:16;17.40;99.90
16825;DHT22;8529;48.108;-1.706;2022-10-28T09:42:48;17.40;99.90
16825;DHT22;8529;48.108;-1.706;2022-10-28T09:45:19;17.40;99.90
16825;DHT22;8529;48.108;-1.706;2022-10-28T09:47:54;17.40;99.90
16825;DHT22;8529;48.108;-1.706;2022-10-28T09:50:27;17.40;99.90
16825;DHT22;8529;48.108;-1.706;2022-10-28T09:53:01;17.40;99.90
16825;DHT22;8529;48.108;-1.706;2022-10-28T09:55:29;17.40;99.90
16825;DHT22;8529;48.108;-1.706;2022-10-28T09:57:57;17.40;99.90
16825;DHT22;8529;48.108;-1.706;2022-10-28T10:00:24;17.40;99.90
16825;DHT22;8529;48.108;-1.706;2022-10-28T10:02:55;17.40;99.90
16825;DHT22;8529;48.108;-1.706;2022-10-28T10:05:24;17.40;99.90
16825;DHT22;8529;48.108;-1.706;2022-10-28T10:07:53;17.40;99.90
16825;DHT22;8529;48.108;-1.706;2022-10-28T10:10:23;17.50;99.90
16825;DHT22;8529;48.108;-1.706;2022-10-28T10:12:52;17.50;99.90
16825;DHT22;8529;48.108;-1.706;2022-10-28T10:15:27;17.50;99.90
16825;DHT22;8529;48.108;-1.706;2022-10-28T10:17:59;17.50;99.90
16825;DHT22;8529;48.108;-1.706;2022-10-28T10:20:26;17.60;99.90
16825;DHT22;8529;48.108;-1.706;2022-10-28T10:22:53;17.60;99.90
16825;DHT22;8529;48.108;-1.706;2022-10-28T10:25:23;17.60;99.90
16825;DHT22;8529;48.108;-1.706;2022-10-28T10:27:51;17.60;99.90
16825;DHT22;8529;48.108;-1.706;2022-10-28T10:30:21;17.60;99.90
16825;DHT22;8529;48.108;-1.706;2022-10-28T10:32:49;17.60;99.90
16825;DHT22;8529;48.108;-1.706;2022-10-28T10:35:22;17.60;99.90
16825;DHT22;8529;48.108;-1.706;2022-10-28T10:37:50;17.60;99.90
16825;DHT22;8529;48.108;-1.706;2022-10-28T10:40:21;17.60;99.90
16825;DHT22;8529;48.108;-1.706;2022-10-28T10:42:49;17.60;99.90
16825;DHT22;8529;48.108;-1.706;2022-10-28T10:45:22;17.60;99.90
16825;DHT22;8529;48.108;-1.706;2022-10-28T10:48:06;17.70;99.90
16825;DHT22;8529;48.108;-1.706;2022-10-28T10:50:37;17.70;99.90
16825;DHT22;8529;48.108;-1.706;2022-10-28T10:53:05;17.70;99.90
16825;DHT22;8529;48.108;-1.706;2022-10-28T10:55:34;17.70;99.90
16825;DHT22;8529;48.108;-1.706;2022-10-28T10:58:03;17.70;99.90
16825;DHT22;8529;48.108;-1.706;2022-10-28T11:00:34;17.70;99.90
16825;DHT22;8529;48.108;-1.706;2022-10-28T11:03:03;17.70;99.90
16825;DHT22;8529;48.108;-1.706;2022-10-28T11:05:31;17.70;99.90
16825;DHT22;8529;48.108;-1.706;2022-10-28T11:08:01;17.70;99.90
16825;DHT22;8529;48.108;-1.706;2022-10-28T11:10:31;17.70;99.90
16825;DHT22;8529;48.108;-1.706;2022-10-28T11:13:04;17.70;99.90
16825;DHT22;8529;48.108;-1.706;2022-10-28T11:15:32;17.70;99.90
16825;DHT22;8529;48.108;-1.706;2022-10-28T11:18:01;17.80;99.90
16825;DHT22;8529;48.108;-1.706;2022-10-28T11:20:38;17.80;99.90
16825;DHT22;8529;48.108;-1.706;2022-10-28T11:23:25;17.80;99.90
16825;DHT22;8529;48.108;-1.706;2022-10-28T11:26:01;17.90;99.90
16825;DHT22;8529;48.108;-1.706;2022-10-28T11:28:42;18.00;99.90
16825;DHT22;8529;48.108;-1.706;2022-10-28T11:31:28;18.00;99.90
16825;DHT22;8529;48.108;-1.706;2022-10-28T11:34:08;18.00;99.90
16825;DHT22;8529;48.108;-1.706;2022-10-28T11:36:42;18.10;99.90
16825;DHT22;8529;48.108;-1.706;2022-10-28T11:39:20;18.10;99.90
16825;DHT22;8529;48.108;-1.706;2022-10-28T11:41:59;18.10;99.90
16825;DHT22;8529;48.108;-1.706;2022-10-28T11:44:37;18.10;99.90
16825;DHT22;8529;48.108;-1.706;2022-10-28T11:47:19;18.10;99.90
16825;DHT22;8529;48.108;-1.706;2022-10-28T11:50:06;18.10;99.90
16825;DHT22;8529;48.108;-1.706;2022-10-28T11:52:59;18.10;99.90
16825;DHT22;8529;48.108;-1.706;2022-10-28T11:55:36;18.20;99.90
16825;DHT22;8529;48.108;-1.706;2022-10-28T11:58:11;18.20;99.90
16825;DHT22;8529;48.108;-1.706;2022-10-28T12:00:53;18.10;99.90
16825;DHT22;8529;48.108;-1.706;2022-10-28T12:03:42;18.10;99.90
16825;DHT22;8529;48.108;-1.706;2022-10-28T12:06:16;18.10;99.90
16825;DHT22;8529;48.108;-1.706;2022-10-28T12:11:52;18.20;99.90
16825;DHT22;8529;48.108;-1.706;2022-10-28T12:14:26;18.20;99.90
16825;DHT22;8529;48.108;-1.706;2022-10-28T12:17:01;18.10;99.90
16825;DHT22;8529;48.108;-1.706;2022-10-28T12:19:33;18.20;99.90
16825;DHT22;8529;48.108;-1.706;2022-10-28T12:22:04;18.20;99.90
16825;DHT22;8529;48.108;-1.706;2022-10-28T12:24:34;18.20;99.90
16825;DHT22;8529;48.108;-1.706;2022-10-28T12:27:11;18.30;99.90
16825;DHT22;8529;48.108;-1.706;2022-10-28T12:29:42;18.30;99.90
16825;DHT22;8529;48.108;-1.706;2022-10-28T12:32:12;18.30;99.90
16825;DHT22;8529;48.108;-1.706;2022-10-28T12:34:44;18.30;99.90
16825;DHT22;8529;48.108;-1.706;2022-10-28T12:37:12;18.40;99.90
16825;DHT22;8529;48.108;-1.706;2022-10-28T12:39:46;18.40;99.90
16825;DHT22;8529;48.108;-1.706;2022-10-28T12:42:21;18.40;99.90
16825;DHT22;8529;48.108;-1.706;2022-10-28T12:44:53;18.40;99.90
16825;DHT22;8529;48.108;-1.706;2022-10-28T12:47:27;18.40;99.90
16825;DHT22;8529;48.108;-1.706;2022-10-28T12:50:01;18.40;99.90
16825;DHT22;8529;48.108;-1.706;2022-10-28T12:52:35;18.50;99.90
16825;DHT22;8529;48.108;-1.706;2022-10-28T12:55:15;18.60;99.90
16825;DHT22;8529;48.108;-1.706;2022-10-28T12:57:47;18.60;99.90
16825;DHT22;8529;48.108;-1.706;2022-10-28T13:00:19;18.50;99.90
16825;DHT22;8529;48.108;-1.706;2022-10-28T13:02:51;18.50;99.90
16825;DHT22;8529;48.108;-1.706;2022-10-28T13:05:22;18.50;99.90
16825;DHT22;8529;48.108;-1.706;2022-10-28T13:08:00;18.50;99.90
16825;DHT22;8529;48.108;-1.706;2022-10-28T13:10:34;18.50;99.90
16825;DHT22;8529;48.108;-1.706;2022-10-28T13:16:17;18.40;99.90
16825;DHT22;8529;48.108;-1.706;2022-10-28T13:19:12;18.40;99.90
16825;DHT22;8529;48.108;-1.706;2022-10-28T13:21:59;18.50;99.90
16825;DHT22;8529;48.108;-1.706;2022-10-28T13:24:34;18.50;99.90
16825;DHT22;8529;48.108;-1.706;2022-10-28T13:27:09;18.40;99.90
16825;DHT22;8529;48.108;-1.706;2022-10-28T13:29:40;18.40;99.90
16825;DHT22;8529;48.108;-1.706;2022-10-28T13:32:27;18.40;99.90
16825;DHT22;8529;48.108;-1.706;2022-10-28T13:34:55;18.40;99.90
16825;DHT22;8529;48.108;-1.706;2022-10-28T13:37:24;18.40;99.90
16825;DHT22;8529;48.108;-1.706;2022-10-28T13:39:54;18.40;99.90
16825;DHT22;8529;48.108;-1.706;2022-10-28T13:42:43;18.40;99.90
16825;DHT22;8529;48.108;-1.706;2022-10-28T13:45:50;18.40;99.90
16825;DHT22;8529;48.108;-1.706;2022-10-28T13:48:45;18.50;99.90
16825;DHT22;8529;48.108;-1.706;2022-10-28T13:51:32;18.40;99.90
16825;DHT22;8529;48.108;-1.706;2022-10-28T13:53:59;18.40;99.90
16825;DHT22;8529;48.108;-1.706;2022-10-28T13:56:43;18.40;99.90
16825;DHT22;8529;48.108;-1.706;2022-10-28T13:59:29;18.40;99.90
16825;DHT22;8529;48.108;-1.706;2022-10-28T14:02:02;18.40;99.90
16825;DHT22;8529;48.108;-1.706;2022-10-28T14:04:32;18.50;99.90
16825;DHT22;8529;48.108;-1.706;2022-10-28T14:07:18;18.50;99.90
16825;DHT22;8529;48.108;-1.706;2022-10-28T14:09:49;18.50;99.90
16825;DHT22;8529;48.108;-1.706;2022-10-28T14:12:23;18.50;99.90
16825;DHT22;8529;48.108;-1.706;2022-10-28T14:14:58;18.50;99.90
16825;DHT22;8529;48.108;-1.706;2022-10-28T14:17:32;18.50;99.90
16825;DHT22;8529;48.108;-1.706;2022-10-28T14:20:00;18.60;99.90
16825;DHT22;8529;48.108;-1.706;2022-10-28T14:22:30;18.60;99.90
16825;DHT22;8529;48.108;-1.706;2022-10-28T14:24:58;18.60;99.90
16825;DHT22;8529;48.108;-1.706;2022-10-28T14:27:41;18.50;99.90
16825;DHT22;8529;48.108;-1.706;2022-10-28T14:30:22;18.50;99.90
16825;DHT22;8529;48.108;-1.706;2022-10-28T14:35:49;18.50;99.90
16825;DHT22;8529;48.108;-1.706;2022-10-28T14:41:54;18.50;99.90
16825;DHT22;8529;48.108;-1.706;2022-10-28T14:44:40;18.50;99.90
16825;DHT22;8529;48.108;-1.706;2022-10-28T14:47:26;18.50;99.90
16825;DHT22;8529;48.108;-1.706;2022-10-28T14:50:00;18.50;99.90
16825;DHT22;8529;48.108;-1.706;2022-10-28T14:52:30;18.50;99.90
16825;DHT22;8529;48.108;-1.706;2022-10-28T14:55:01;18.50;99.90
16825;DHT22;8529;48.108;-1.706;2022-10-28T14:57:31;18.50;99.90
16825;DHT22;8529;48.108;-1.706;2022-10-28T15:00:02;18.50;99.90
16825;DHT22;8529;48.108;-1.706;2022-10-28T15:02:31;18.50;99.90
16825;DHT22;8529;48.108;-1.706;2022-10-28T15:05:03;18.50;99.90
16825;DHT22;8529;48.108;-1.706;2022-10-28T15:07:36;18.50;99.90
16825;DHT22;8529;48.108;-1.706;2022-10-28T15:10:12;18.50;99.90
16825;DHT22;8529;48.108;-1.706;2022-10-28T15:12:42;18.50;99.90
16825;DHT22;8529;48.108;-1.706;2022-10-28T15:15:17;18.50;99.90
16825;DHT22;8529;48.108;-1.706;2022-10-28T15:17:44;18.50;99.90
16825;DHT22;8529;48.108;-1.706;2022-10-28T15:20:20;18.50;99.90
16825;DHT22;8529;48.108;-1.706;2022-10-28T15:22:47;18.50;99.90
16825;DHT22;8529;48.108;-1.706;2022-10-28T15:25:15;18.40;99.90
16825;DHT22;8529;48.108;-1.706;2022-10-28T15:27:44;18.40;99.90
16825;DHT22;8529;48.108;-1.706;2022-10-28T15:30:14;18.40;99.90
16825;DHT22;8529;48.108;-1.706;2022-10-28T15:32:43;18.40;99.90
16825;DHT22;8529;48.108;-1.706;2022-10-28T15:35:37;18.40;99.90
16825;DHT22;8529;48.108;-1.706;2022-10-28T15:38:24;18.40;99.90
16825;DHT22;8529;48.108;-1.706;2022-10-28T15:40:56;18.40;99.90
16825;DHT22;8529;48.108;-1.706;2022-10-28T15:43:26;18.40;99.90
16825;DHT22;8529;48.108;-1.706;2022-10-28T15:45:53;18.30;99.90
16825;DHT22;8529;48.108;-1.706;2022-10-28T15:48:23;18.30;99.90
16825;DHT22;8529;48.108;-1.706;2022-10-28T15:51:12;18.30;99.90
16825;DHT22;8529;48.108;-1.706;2022-10-28T15:53:40;18.30;99.90
16825;DHT22;8529;48.108;-1.706;2022-10-28T15:56:22;18.30;99.90
16825;DHT22;8529;48.108;-1.706;2022-10-28T15:59:09;18.30;99.90
16825;DHT22;8529;48.108;-1.706;2022-10-28T16:01:39;18.30;99.90
16825;DHT22;8529;48.108;-1.706;2022-10-28T16:04:41;18.20;99.90
16825;DHT22;8529;48.108;-1.706;2022-10-28T16:07:11;18.20;99.90
16825;DHT22;8529;48.108;-1.706;2022-10-28T16:09:43;18.20;99.90
16825;DHT22;8529;48.108;-1.706;2022-10-28T16:12:14;18.20;99.90
16825;DHT22;8529;48.108;-1.706;2022-10-28T16:14:43;18.10;99.90